sensor_id;sensor_type;location;lat;lon;timestamp;temperature;humidity
14236;DHT22;7202;50.718;7.072;2023-09-19T00:00:44;16.10;99.90
14236;DHT22;7202;50.718;7.072;2023-09-19T00:03:15;16.10;99.90
14236;DHT22;7202;50.718;7.072;2023-09-19T00:05:43;16.10;99.90
14236;DHT22;7202;50.718;7.072;2023-09-19T00:08:13;16.00;99.90
14236;DHT22;7202;50.718;7.072;2023-09-19T00:10:44;16.00;99.90
14236;DHT22;7202;50.718;7.072;2023-09-19T00:13:13;16.00;99.90
14236;DHT22;7202;50.718;7.072;2023-09-19T00:15:44;16.00;99.90
14236;DHT22;7202;50.718;7.072;2023-09-19T00:18:17;16.00;99.90
14236;DHT22;7202;50.718;7.072;2023-09-19T00:20:47;16.00;99.90
14236;DHT22;7202;50.718;7.072;2023-09-19T00:23:17;15.90;99.90
14236;DHT22;7202;50.718;7.072;2023-09-19T00:25:48;15.90;99.90
14236;DHT22;7202;50.718;7.072;2023-09-19T00:28:18;16.00;99.90
14236;DHT22;7202;50.718;7.072;2023-09-19T00:30:47;16.00;99.90
14236;DHT22;7202;50.718;7.072;2023-09-19T00:33:18;16.00;99.90
14236;DHT22;7202;50.718;7.072;2023-09-19T00:35:47;16.00;99.90
14236;DHT22;7202;50.718;7.072;2023-09-19T00:38:16;16.00;99.90
14236;DHT22;7202;50.718;7.072;2023-09-19T00:40:50;16.00;99.90
14236;DHT22;7202;50.718;7.072;2023-09-19T00:43:19;16.00;99.90
14236;DHT22;7202;50.718;7.072;2023-09-19T00:45:49;16.00;99.90
14236;DHT22;7202;50.718;7.072;2023-09-19T00:48:19;16.00;99.90
14236;DHT22;7202;50.718;7.072;2023-09-19T00:50:49;15.90;99.90
14236;DHT22;7202;50.718;7.072;2023-09-19T00:53:20;15.90;99.90
14236;DHT22;7202;50.718;7.072;2023-09-19T00:55:52;15.80;99.90
14236;DHT22;7202;50.718;7.072;2023-09-19T00:58:21;15.80;99.90
14236;DHT22;7202;50.718;7.072;2023-09-19T01:00:50;15.80;99.90
14236;DHT22;7202;50.718;7.072;2023-09-19T01:03:20;15.80;99.90
14236;DHT22;7202;50.718;7.072;2023-09-19T01:05:50;15.80;99.90
14236;DHT22;7202;50.718;7.072;2023-09-19T01:08:19;15.70;99.90
14236;DHT22;7202;50.718;7.072;2023-09-19T01:10:55;15.60;99.90
14236;DHT22;7202;50.718;7.072;2023-09-19T01:13:30;15.70;99.90
14236;DHT22;7202;50.718;7.072;2023-09-19T01:16:11;15.70;99.90
14236;DHT22;7202;50.718;7.072;2023-09-19T01:18:48;15.70;99.90
14236;DHT22;7202;50.718;7.072;2023-09-19T01:21:22;15.70;99.90
14236;DHT22;7202;50.718;7.072;2023-09-19T01:24:22;15.70;99.90
14236;DHT22;7202;50.718;7.072;2023-09-19T01:27:17;15.70;99.90
14236;DHT22;7202;50.718;7.072;2023-09-19T01:29:51;15.60;99.90
14236;DHT22;7202;50.718;7.072;2023-09-19T01:32:23;15.70;99.90
14236;DHT22;7202;50.718;7.072;2023-09-19T01:34:54;15.70;99.90
14236;DHT22;7202;50.718;7.072;2023-09-19T01:37:25;15.70;99.90
14236;DHT22;7202;50.718;7.072;2023-09-19T01:39:57;15.70;99.90
14236;DHT22;7202;50.718;7.072;2023-09-19T01:42:42;15.70;99.90
14236;DHT22;7202;50.718;7.072;2023-09-19T01:45:13;15.80;99.90
14236;DHT22;7202;50.718;7.072;2023-09-19T01:47:49;15.80;99.90
14236;DHT22;7202;50.718;7.072;2023-09-19T01:50:27;15.90;99.90
14236;DHT22;7202;50.718;7.072;2023-09-19T01:53:03;15.90;99.90
14236;DHT22;7202;50.718;7.072;2023-09-19T01:55:42;16.00;99.90
14236;DHT22;7202;50.718;7.072;2023-09-19T01:58:17;16.10;99.90
14236;DHT22;7202;50.718;7.072;2023-09-19T02:00:49;16.00;99.90
14236;DHT22;7202;50.718;7.072;2023-09-19T02:03:21;16.10;99.90
14236;DHT22;7202;50.718;7.072;2023-09-19T02:05:51;16.10;99.90
14236;DHT22;7202;50.718;7.072;2023-09-19T02:08:22;16.00;99.90
14236;DHT22;7202;50.718;7.072;2023-09-19T02:10:52;16.00;99.90
14236;DHT22;7202;50.718;7.072;2023-09-19T02:13:22;16.00;99.90
14236;DHT22;7202;50.718;7.072;2023-09-19T02:15:51;16.00;99.90
14236;DHT22;7202;50.718;7.072;2023-09-19T02:18:21;16.00;99.90
14236;DHT22;7202;50.718;7.072;2023-09-19T02:20:50;16.00;99.90
14236;DHT22;7202;50.718;7.072;2023-09-19T02:23:20;16.00;99.90
14236;DHT22;7202;50.718;7.072;2023-09-19T02:25:52;15.90;99.90
14236;DHT22;7202;50.718;7.072;2023-09-19T02:28:21;15.90;99.90
14236;DHT22;7202;50.718;7.072;2023-09-19T02:30:51;15.90;99.90
14236;DHT22;7202;50.718;7.072;2023-09-19T02:33:21;15.90;99.90
14236;DHT22;7202;50.718;7.072;2023-09-19T02:35:55;15.90;99.90
14236;DHT22;7202;50.718;7.072;2023-09-19T02:38:25;15.80;99.90
14236;DHT22;7202;50.718;7.072;2023-09-19T02:40:54;15.80;99.90
14236;DHT22;7202;50.718;7.072;2023-09-19T02:43:23;15.80;99.90
14236;DHT22;7202;50.718;7.072;2023-09-19T02:45:52;15.70;99.90
14236;DHT22;7202;50.718;7.072;2023-09-19T02:48:23;15.70;99.90
14236;DHT22;7202;50.718;7.072;2023-09-19T02:50:53;15.70;99.90
14236;DHT22;7202;50.718;7.072;2023-09-19T02:53:21;15.60;99.90
14236;DHT22;7202;50.718;7.072;2023-09-19T02:55:51;15.60;99.90
14236;DHT22;7202;50.718;7.072;2023-09-19T02:58:21;15.60;99.90
14236;DHT22;7202;50.718;7.072;2023-09-19T03:00:52;15.60;99.90
14236;DHT22;7202;50.718;7.072;2023-09-19T03:03:24;15.50;99.90
14236;DHT22;7202;50.718;7.072;2023-09-19T03:05:53;15.50;99.90
14236;DHT22;7202;50.718;7.072;2023-09-19T03:08:23;15.50;99.90
14236;DHT22;7202;50.718;7.072;2023-09-19T03:10:52;15.40;99.90
14236;DHT22;7202;50.718;7.072;2023-09-19T03:13:21;15.40;99.90
14236;DHT22;7202;50.718;7.072;2023-09-19T03:15:50;15.30;99.90
14236;DHT22;7202;50.718;7.072;2023-09-19T03:18:25;15.30;99.90
14236;DHT22;7202;50.718;7.072;2023-09-19T03:20:55;15.30;99.90
14236;DHT22;7202;50.718;7.072;2023-09-19T03:23:24;15.20;99.90
14236;DHT22;7202;50.718;7.072;2023-09-19T03:25:53;15.20;99.90
14236;DHT22;7202;50.718;7.072;2023-09-19T03:28:23;15.10;99.90
14236;DHT22;7202;50.718;7.072;2023-09-19T03:31:01;15.10;99.90
14236;DHT22;7202;50.718;7.072;2023-09-19T03:33:33;15.10;99.90
14236;DHT22;7202;50.718;7.072;2023-09-19T03:36:03;15.00;99.90
14236;DHT22;7202;50.718;7.072;2023-09-19T03:38:33;15.00;99.90
14236;DHT22;7202;50.718;7.072;2023-09-19T03:41:03;15.00;99.90
14236;DHT22;7202;50.718;7.072;2023-09-19T03:43:34;15.00;99.90
14236;DHT22;7202;50.718;7.072;2023-09-19T03:46:04;14.90;99.90
14236;DHT22;7202;50.718;7.072;2023-09-19T03:48:35;14.90;99.90
14236;DHT22;7202;50.718;7.072;2023-09-19T03:51:04;14.90;99.90
14236;DHT22;7202;50.718;7.072;2023-09-19T03:53:33;14.80;99.90
14236;DHT22;7202;50.718;7.072;2023-09-19T03:56:01;14.80;99.90
14236;DHT22;7202;50.718;7.072;2023-09-19T03:58:33;14.80;99.90
14236;DHT22;7202;50.718;7.072;2023-09-19T04:01:06;14.80;99.90
14236;DHT22;7202;50.718;7.072;2023-09-19T04:03:36;14.70;99.90
14236;DHT22;7202;50.718;7.072;2023-09-19T04:06:14;14.70;99.90
14236;DHT22;7202;50.718;7.072;2023-09-19T04:08:44;14.70;99.90
14236;DHT22;7202;50.718;7.072;2023-09-19T04:11:13;14.60;99.90
14236;DHT22;7202;50.718;7.072;2023-09-19T04:13:42;14.60;99.90
14236;DHT22;7202;50.718;7.072;2023-09-19T04:16:11;14.60;99.90
14236;DHT22;7202;50.718;7.072;2023-09-19T04:18:41;14.60;99.90
14236;DHT22;7202;50.718;7.072;2023-09-19T04:21:09;14.60;99.90
14236;DHT22;7202;50.718;7.072;2023-09-19T04:23:38;14.50;99.90
14236;DHT22;7202;50.718;7.072;2023-09-19T04:26:07;14.60;99.90
14236;DHT22;7202;50.718;7.072;2023-09-19T04:28:36;14.50;99.90
14236;DHT22;7202;50.718;7.072;2023-09-19T04:31:06;14.50;99.90
14236;DHT22;7202;50.718;7.072;2023-09-19T04:33:36;14.50;99.90
14236;DHT22;7202;50.718;7.072;2023-09-19T04:36:06;14.50;99.90
14236;DHT22;7202;50.718;7.072;2023-09-19T04:38:55;14.50;99.90
14236;DHT22;7202;50.718;7.072;2023-09-19T04:41:24;14.50;99.90
14236;DHT22;7202;50.718;7.072;2023-09-19T04:43:53;14.40;99.90
14236;DHT22;7202;50.718;7.072;2023-09-19T04:46:22;14.40;99.90
14236;DHT22;7202;50.718;7.072;2023-09-19T04:48:51;14.40;99.90
14236;DHT22;7202;50.718;7.072;2023-09-19T04:51:21;14.50;99.90
14236;DHT22;7202;50.718;7.072;2023-09-19T04:53:50;14.40;99.90
14236;DHT22;7202;50.718;7.072;2023-09-19T04:56:18;14.40;99.90
14236;DHT22;7202;50.718;7.072;2023-09-19T04:58:48;14.50;99.90
14236;DHT22;7202;50.718;7.072;2023-09-19T05:01:17;14.40;99.90
14236;DHT22;7202;50.718;7.072;2023-09-19T05:03:45;14.40;99.90
14236;DHT22;7202;50.718;7.072;2023-09-19T05:06:20;14.40;99.90
14236;DHT22;7202;50.718;7.072;2023-09-19T05:08:49;14.40;99.90
14236;DHT22;7202;50.718;7.072;2023-09-19T05:11:20;14.40;99.90
14236;DHT22;7202;50.718;7.072;2023-09-19T05:13:50;14.40;99.90
14236;DHT22;7202;50.718;7.072;2023-09-19T05:16:20;14.40;99.90
14236;DHT22;7202;50.718;7.072;2023-09-19T05:18:49;14.40;99.90
14236;DHT22;7202;50.718;7.072;2023-09-19T05:21:18;14.30;99.90
14236;DHT22;7202;50.718;7.072;2023-09-19T05:23:48;14.30;99.90
14236;DHT22;7202;50.718;7.072;2023-09-19T05:26:17;14.30;99.90
14236;DHT22;7202;50.718;7.072;2023-09-19T05:28:45;14.30;99.90
14236;DHT22;7202;50.718;7.072;2023-09-19T05:31:15;14.30;99.90
14236;DHT22;7202;50.718;7.072;2023-09-19T05:33:44;14.30;99.90
14236;DHT22;7202;50.718;7.072;2023-09-19T05:36:13;14.20;99.90
14236;DHT22;7202;50.718;7.072;2023-09-19T05:38:44;14.20;99.90
14236;DHT22;7202;50.718;7.072;2023-09-19T05:41:14;14.20;99.90
14236;DHT22;7202;50.718;7.072;2023-09-19T05:43:43;14.20;99.90
14236;DHT22;7202;50.718;7.072;2023-09-19T05:46:12;14.20;99.90
14236;DHT22;7202;50.718;7.072;2023-09-19T05:48:40;14.20;99.90
14236;DHT22;7202;50.718;7.072;2023-09-19T05:51:11;14.20;99.90
14236;DHT22;7202;50.718;7.072;2023-09-19T05:53:39;14.20;99.90
14236;DHT22;7202;50.718;7.072;2023-09-19T05:56:10;14.20;99.90
14236;DHT22;7202;50.718;7.072;2023-09-19T05:58:42;14.20;99.90
14236;DHT22;7202;50.718;7.072;2023-09-19T06:01:11;14.30;99.90
14236;DHT22;7202;50.718;7.072;2023-09-19T06:03:40;14.30;99.90
14236;DHT22;7202;50.718;7.072;2023-09-19T06:06:10;14.30;99.90
14236;DHT22;7202;50.718;7.072;2023-09-19T06:08:38;14.30;99.90
14236;DHT22;7202;50.718;7.072;2023-09-19T06:11:07;14.30;99.90
14236;DHT22;7202;50.718;7.072;2023-09-19T06:13:36;14.30;99.90
14236;DHT22;7202;50.718;7.072;2023-09-19T06:16:08;14.40;99.90
14236;DHT22;7202;50.718;7.072;2023-09-19T06:18:37;14.40;99.90
14236;DHT22;7202;50.718;7.072;2023-09-19T06:21:06;14.40;99.90
14236;DHT22;7202;50.718;7.072;2023-09-19T06:23:36;14.40;99.90
14236;DHT22;7202;50.718;7.072;2023-09-19T06:26:05;14.40;99.90
14236;DHT22;7202;50.718;7.072;2023-09-19T06:28:34;14.50;99.90
14236;DHT22;7202;50.718;7.072;2023-09-19T06:31:04;14.50;99.90
14236;DHT22;7202;50.718;7.072;2023-09-19T06:33:39;14.50;99.90
14236;DHT22;7202;50.718;7.072;2023-09-19T06:36:08;14.60;99.90
14236;DHT22;7202;50.718;7.072;2023-09-19T06:38:36;14.60;99.90
14236;DHT22;7202;50.718;7.072;2023-09-19T06:41:06;14.60;99.90
14236;DHT22;7202;50.718;7.072;2023-09-19T06:43:35;14.70;99.90
14236;DHT22;7202;50.718;7.072;2023-09-19T06:46:04;14.70;99.90
14236;DHT22;7202;50.718;7.072;2023-09-19T06:48:34;14.70;99.90
14236;DHT22;7202;50.718;7.072;2023-09-19T06:51:04;14.70;99.90
14236;DHT22;7202;50.718;7.072;2023-09-19T06:53:33;14.80;99.90
14236;DHT22;7202;50.718;7.072;2023-09-19T06:56:03;14.80;99.90
14236;DHT22;7202;50.718;7.072;2023-09-19T06:58:33;14.80;99.90
14236;DHT22;7202;50.718;7.072;2023-09-19T07:01:04;14.90;99.90
14236;DHT22;7202;50.718;7.072;2023-09-19T07:03:32;14.90;99.90
14236;DHT22;7202;50.718;7.072;2023-09-19T07:06:01;15.00;99.90
14236;DHT22;7202;50.718;7.072;2023-09-19T07:08:33;15.00;99.90
14236;DHT22;7202;50.718;7.072;2023-09-19T07:11:02;15.10;99.90
14236;DHT22;7202;50.718;7.072;2023-09-19T07:13:33;15.20;99.90
14236;DHT22;7202;50.718;7.072;2023-09-19T07:16:03;15.20;99.90
14236;DHT22;7202;50.718;7.072;2023-09-19T07:18:32;15.20;99.90
14236;DHT22;7202;50.718;7.072;2023-09-19T07:21:00;15.20;99.90
14236;DHT22;7202;50.718;7.072;2023-09-19T07:23:33;15.30;99.90
14236;DHT22;7202;50.718;7.072;2023-09-19T07:26:02;15.40;99.90
14236;DHT22;7202;50.718;7.072;2023-09-19T07:28:32;15.40;99.90
14236;DHT22;7202;50.718;7.072;2023-09-19T07:31:02;15.50;99.90
14236;DHT22;7202;50.718;7.072;2023-09-19T07:33:32;15.50;99.90
14236;DHT22;7202;50.718;7.072;2023-09-19T07:36:01;15.50;99.90
14236;DHT22;7202;50.718;7.072;2023-09-19T07:38:29;15.60;99.90
14236;DHT22;7202;50.718;7.072;2023-09-19T07:41:01;15.60;99.90
14236;DHT22;7202;50.718;7.072;2023-09-19T07:43:31;15.70;99.90
14236;DHT22;7202;50.718;7.072;2023-09-19T07:46:03;15.80;99.90
14236;DHT22;7202;50.718;7.072;2023-09-19T07:48:34;15.80;99.90
14236;DHT22;7202;50.718;7.072;2023-09-19T07:51:03;15.80;99.90
14236;DHT22;7202;50.718;7.072;2023-09-19T07:53:33;15.90;99.90
14236;DHT22;7202;50.718;7.072;2023-09-19T07:56:05;15.90;99.90
14236;DHT22;7202;50.718;7.072;2023-09-19T07:58:34;16.00;99.90
14236;DHT22;7202;50.718;7.072;2023-09-19T08:01:04;16.10;99.90
14236;DHT22;7202;50.718;7.072;2023-09-19T08:03:34;16.00;99.90
14236;DHT22;7202;50.718;7.072;2023-09-19T08:06:07;16.10;99.90
14236;DHT22;7202;50.718;7.072;2023-09-19T08:08:36;16.10;99.90
14236;DHT22;7202;50.718;7.072;2023-09-19T08:11:07;16.20;99.90
14236;DHT22;7202;50.718;7.072;2023-09-19T08:13:39;16.20;99.90
14236;DHT22;7202;50.718;7.072;2023-09-19T08:16:10;16.30;99.90
14236;DHT22;7202;50.718;7.072;2023-09-19T08:18:39;16.30;99.90
14236;DHT22;7202;50.718;7.072;2023-09-19T08:21:08;16.40;99.90
14236;DHT22;7202;50.718;7.072;2023-09-19T08:23:38;16.50;99.90
14236;DHT22;7202;50.718;7.072;2023-09-19T08:26:09;16.50;99.90
14236;DHT22;7202;50.718;7.072;2023-09-19T08:28:37;16.50;99.90
14236;DHT22;7202;50.718;7.072;2023-09-19T08:31:08;16.60;99.90
14236;DHT22;7202;50.718;7.072;2023-09-19T08:33:38;16.70;99.90
14236;DHT22;7202;50.718;7.072;2023-09-19T08:36:07;16.70;99.90
14236;DHT22;7202;50.718;7.072;2023-09-19T08:38:36;16.80;99.90
14236;DHT22;7202;50.718;7.072;2023-09-19T08:41:08;16.90;99.90
14236;DHT22;7202;50.718;7.072;2023-09-19T08:43:37;16.90;99.90
14236;DHT22;7202;50.718;7.072;2023-09-19T08:46:11;16.90;99.90
14236;DHT22;7202;50.718;7.072;2023-09-19T08:48:46;16.90;99.90
14236;DHT22;7202;50.718;7.072;2023-09-19T08:51:21;16.90;99.90
14236;DHT22;7202;50.718;7.072;2023-09-19T08:54:01;17.00;99.90
14236;DHT22;7202;50.718;7.072;2023-09-19T08:56:33;17.10;99.90
14236;DHT22;7202;50.718;7.072;2023-09-19T08:59:03;17.10;99.90
14236;DHT22;7202;50.718;7.072;2023-09-19T09:01:32;17.10;99.90
14236;DHT22;7202;50.718;7.072;2023-09-19T09:04:02;17.20;99.90
14236;DHT22;7202;50.718;7.072;2023-09-19T09:06:31;17.20;99.90
14236;DHT22;7202;50.718;7.072;2023-09-19T09:09:00;17.20;99.90
14236;DHT22;7202;50.718;7.072;2023-09-19T09:11:34;17.30;99.90
14236;DHT22;7202;50.718;7.072;2023-09-19T09:14:02;17.30;99.90
14236;DHT22;7202;50.718;7.072;2023-09-19T09:16:31;17.40;99.90
14236;DHT22;7202;50.718;7.072;2023-09-19T09:19:00;17.40;99.90
14236;DHT22;7202;50.718;7.072;2023-09-19T09:21:29;17.40;99.90
14236;DHT22;7202;50.718;7.072;2023-09-19T09:24:26;17.50;99.90
14236;DHT22;7202;50.718;7.072;2023-09-19T09:26:57;17.60;99.90
14236;DHT22;7202;50.718;7.072;2023-09-19T09:29:42;17.60;99.90
14236;DHT22;7202;50.718;7.072;2023-09-19T09:32:21;17.70;99.90
14236;DHT22;7202;50.718;7.072;2023-09-19T09:34:51;17.70;99.90
14236;DHT22;7202;50.718;7.072;2023-09-19T09:37:21;17.70;99.90
14236;DHT22;7202;50.718;7.072;2023-09-19T09:39:53;17.80;99.90
14236;DHT22;7202;50.718;7.072;2023-09-19T09:42:31;17.80;99.90
14236;DHT22;7202;50.718;7.072;2023-09-19T09:45:16;17.80;99.90
14236;DHT22;7202;50.718;7.072;2023-09-19T09:47:47;17.80;99.90
14236;DHT22;7202;50.718;7.072;2023-09-19T09:50:29;17.80;99.90
14236;DHT22;7202;50.718;7.072;2023-09-19T09:53:20;17.90;99.90
14236;DHT22;7202;50.718;7.072;2023-09-19T09:56:01;18.00;99.90
14236;DHT22;7202;50.718;7.072;2023-09-19T09:58:36;18.10;99.90
14236;DHT22;7202;50.718;7.072;2023-09-19T10:01:05;18.30;99.90
14236;DHT22;7202;50.718;7.072;2023-09-19T10:03:39;18.30;99.90
14236;DHT22;7202;50.718;7.072;2023-09-19T10:06:11;18.30;99.90
14236;DHT22;7202;50.718;7.072;2023-09-19T10:09:03;18.30;99.90
14236;DHT22;7202;50.718;7.072;2023-09-19T10:11:43;18.40;99.90
14236;DHT22;7202;50.718;7.072;2023-09-19T10:14:15;18.40;99.90
14236;DHT22;7202;50.718;7.072;2023-09-19T10:16:47;18.50;99.90
14236;DHT22;7202;50.718;7.072;2023-09-19T10:19:21;18.60;99.90
14236;DHT22;7202;50.718;7.072;2023-09-19T10:21:54;18.60;99.90
14236;DHT22;7202;50.718;7.072;2023-09-19T10:24:24;18.60;99.90
14236;DHT22;7202;50.718;7.072;2023-09-19T10:26:54;18.60;99.90
14236;DHT22;7202;50.718;7.072;2023-09-19T10:29:24;18.70;99.90
14236;DHT22;7202;50.718;7.072;2023-09-19T10:31:58;18.80;99.90
14236;DHT22;7202;50.718;7.072;2023-09-19T10:34:29;18.80;99.90
14236;DHT22;7202;50.718;7.072;2023-09-19T10:37:00;19.00;99.90
14236;DHT22;7202;50.718;7.072;2023-09-19T10:39:33;19.00;99.90
14236;DHT22;7202;50.718;7.072;2023-09-19T10:42:02;19.10;99.90
14236;DHT22;7202;50.718;7.072;2023-09-19T10:44:37;19.20;99.90
14236;DHT22;7202;50.718;7.072;2023-09-19T10:47:10;19.30;99.90
14236;DHT22;7202;50.718;7.072;2023-09-19T10:49:43;19.40;99.90
14236;DHT22;7202;50.718;7.072;2023-09-19T10:52:15;19.50;99.90
14236;DHT22;7202;50.718;7.072;2023-09-19T10:54:48;19.50;99.90
14236;DHT22;7202;50.718;7.072;2023-09-19T10:57:20;19.50;99.90
14236;DHT22;7202;50.718;7.072;2023-09-19T11:00:06;19.50;99.90
14236;DHT22;7202;50.718;7.072;2023-09-19T11:03:17;19.50;99.90
14236;DHT22;7202;50.718;7.072;2023-09-19T11:06:05;19.50;99.90
14236;DHT22;7202;50.718;7.072;2023-09-19T11:08:54;19.50;99.90
14236;DHT22;7202;50.718;7.072;2023-09-19T11:11:48;19.40;99.90
14236;DHT22;7202;50.718;7.072;2023-09-19T11:14:30;19.50;99.90
14236;DHT22;7202;50.718;7.072;2023-09-19T11:20:24;19.50;99.90
14236;DHT22;7202;50.718;7.072;2023-09-19T11:23:19;19.60;99.90
14236;DHT22;7202;50.718;7.072;2023-09-19T11:25:50;19.60;99.90
14236;DHT22;7202;50.718;7.072;2023-09-19T11:28:29;19.60;99.90
14236;DHT22;7202;50.718;7.072;2023-09-19T11:30:58;19.60;99.90
14236;DHT22;7202;50.718;7.072;2023-09-19T11:33:28;19.60;99.90
14236;DHT22;7202;50.718;7.072;2023-09-19T11:36:01;19.60;99.90
14236;DHT22;7202;50.718;7.072;2023-09-19T11:38:57;19.50;99.90
14236;DHT22;7202;50.718;7.072;2023-09-19T11:41:39;19.50;99.90
14236;DHT22;7202;50.718;7.072;2023-09-19T11:44:33;19.50;99.90
14236;DHT22;7202;50.718;7.072;2023-09-19T11:47:06;19.50;99.90
14236;DHT22;7202;50.718;7.072;2023-09-19T11:49:40;19.60;99.90
14236;DHT22;7202;50.718;7.072;2023-09-19T11:52:14;19.70;99.90
14236;DHT22;7202;50.718;7.072;2023-09-19T11:54:55;19.70;99.90
14236;DHT22;7202;50.718;7.072;2023-09-19T11:57:25;19.80;99.90
14236;DHT22;7202;50.718;7.072;2023-09-19T11:59:54;19.80;99.90
14236;DHT22;7202;50.718;7.072;2023-09-19T12:02:34;19.90;99.90
14236;DHT22;7202;50.718;7.072;2023-09-19T12:05:08;20.00;99.90
14236;DHT22;7202;50.718;7.072;2023-09-19T12:07:44;20.20;99.90
14236;DHT22;7202;50.718;7.072;2023-09-19T12:10:15;20.20;99.90
14236;DHT22;7202;50.718;7.072;2023-09-19T12:12:47;20.30;99.90
14236;DHT22;7202;50.718;7.072;2023-09-19T12:15:22;20.30;99.90
14236;DHT22;7202;50.718;7.072;2023-09-19T12:17:55;20.40;99.90
14236;DHT22;7202;50.718;7.072;2023-09-19T12:20:24;20.40;99.90
14236;DHT22;7202;50.718;7.072;2023-09-19T12:22:54;20.40;99.90
14236;DHT22;7202;50.718;7.072;2023-09-19T12:25:24;20.40;99.90
14236;DHT22;7202;50.718;7.072;2023-09-19T12:27:52;20.40;99.90
14236;DHT22;7202;50.718;7.072;2023-09-19T12:30:28;20.40;99.90
14236;DHT22;7202;50.718;7.072;2023-09-19T12:33:00;20.50;99.90
14236;DHT22;7202;50.718;7.072;2023-09-19T12:35:32;20.50;99.90
14236;DHT22;7202;50.718;7.072;2023-09-19T12:38:04;20.60;99.90
14236;DHT22;7202;50.718;7.072;2023-09-19T12:40:33;20.60;99.90
14236;DHT22;7202;50.718;7.072;2023-09-19T12:43:05;20.70;99.90
14236;DHT22;7202;50.718;7.072;2023-09-19T12:45:35;20.70;99.90
14236;DHT22;7202;50.718;7.072;2023-09-19T12:48:21;20.80;99.90
14236;DHT22;7202;50.718;7.072;2023-09-19T12:51:03;20.80;99.90
14236;DHT22;7202;50.718;7.072;2023-09-19T12:53:37;20.80;99.90
14236;DHT22;7202;50.718;7.072;2023-09-19T12:56:09;20.80;99.90
14236;DHT22;7202;50.718;7.072;2023-09-19T12:58:50;20.80;99.90
14236;DHT22;7202;50.718;7.072;2023-09-19T13:01:22;20.90;99.90
14236;DHT22;7202;50.718;7.072;2023-09-19T13:04:14;20.90;99.90
14236;DHT22;7202;50.718;7.072;2023-09-19T13:06:46;21.00;99.90
14236;DHT22;7202;50.718;7.072;2023-09-19T13:09:19;21.00;99.90
14236;DHT22;7202;50.718;7.072;2023-09-19T13:11:49;21.10;99.90
14236;DHT22;7202;50.718;7.072;2023-09-19T13:14:20;21.10;99.90
14236;DHT22;7202;50.718;7.072;2023-09-19T13:16:57;21.10;99.90
14236;DHT22;7202;50.718;7.072;2023-09-19T13:19:38;21.20;99.90
14236;DHT22;7202;50.718;7.072;2023-09-19T13:22:38;21.20;99.90
14236;DHT22;7202;50.718;7.072;2023-09-19T13:25:10;21.10;99.90
14236;DHT22;7202;50.718;7.072;2023-09-19T13:27:42;21.10;99.90
14236;DHT22;7202;50.718;7.072;2023-09-19T13:30:12;21.00;99.90
14236;DHT22;7202;50.718;7.072;2023-09-19T13:32:41;21.00;99.90
14236;DHT22;7202;50.718;7.072;2023-09-19T13:35:10;21.00;99.90
14236;DHT22;7202;50.718;7.072;2023-09-19T13:37:41;20.90;99.90
14236;DHT22;7202;50.718;7.072;2023-09-19T13:40:13;20.90;99.90
14236;DHT22;7202;50.718;7.072;2023-09-19T13:42:43;20.90;99.90
14236;DHT22;7202;50.718;7.072;2023-09-19T13:45:11;20.90;99.90
14236;DHT22;7202;50.718;7.072;2023-09-19T13:47:43;20.90;99.90
14236;DHT22;7202;50.718;7.072;2023-09-19T13:50:11;20.90;99.90
14236;DHT22;7202;50.718;7.072;2023-09-19T13:52:41;20.90;99.90
14236;DHT22;7202;50.718;7.072;2023-09-19T13:55:11;20.90;99.90
14236;DHT22;7202;50.718;7.072;2023-09-19T13:57:41;20.90;99.90
14236;DHT22;7202;50.718;7.072;2023-09-19T14:00:12;20.90;99.90
14236;DHT22;7202;50.718;7.072;2023-09-19T14:02:43;21.00;99.90
14236;DHT22;7202;50.718;7.072;2023-09-19T14:05:13;21.00;99.90
14236;DHT22;7202;50.718;7.072;2023-09-19T14:07:44;21.00;99.90
14236;DHT22;7202;50.718;7.072;2023-09-19T14:10:14;21.00;99.90
14236;DHT22;7202;50.718;7.072;2023-09-19T14:12:45;21.10;99.90
14236;DHT22;7202;50.718;7.072;2023-09-19T14:15:14;21.20;99.90
14236;DHT22;7202;50.718;7.072;2023-09-19T14:17:42;21.20;99.90
14236;DHT22;7202;50.718;7.072;2023-09-19T14:20:12;21.30;99.90
14236;DHT22;7202;50.718;7.072;2023-09-19T14:22:41;21.30;99.90
14236;DHT22;7202;50.718;7.072;2023-09-19T14:25:09;21.30;99.90
14236;DHT22;7202;50.718;7.072;2023-09-19T14:27:39;21.40;99.90
14236;DHT22;7202;50.718;7.072;2023-09-19T14:30:09;21.40;99.90
14236;DHT22;7202;50.718;7.072;2023-09-19T14:32:38;21.40;99.90
14236;DHT22;7202;50.718;7.072;2023-09-19T14:35:07;21.40;99.90
14236;DHT22;7202;50.718;7.072;2023-09-19T14:37:37;21.50;99.90
14236;DHT22;7202;50.718;7.072;2023-09-19T14:40:08;21.40;99.90
14236;DHT22;7202;50.718;7.072;2023-09-19T14:42:39;21.40;99.90
14236;DHT22;7202;50.718;7.072;2023-09-19T14:45:09;21.40;99.90
14236;DHT22;7202;50.718;7.072;2023-09-19T14:47:38;21.40;99.90
14236;DHT22;7202;50.718;7.072;2023-09-19T14:50:08;21.40;99.90
14236;DHT22;7202;50.718;7.072;2023-09-19T14:52:38;21.40;99.90
14236;DHT22;7202;50.718;7.072;2023-09-19T14:55:07;21.30;99.90
14236;DHT22;7202;50.718;7.072;2023-09-19T14:57:43;21.30;99.90
14236;DHT22;7202;50.718;7.072;2023-09-19T15:00:14;21.30;99.90
14236;DHT22;7202;50.718;7.072;2023-09-19T15:02:44;21.30;99.90
14236;DHT22;7202;50.718;7.072;2023-09-19T15:05:16;21.30;99.90
14236;DHT22;7202;50.718;7.072;2023-09-19T15:07:47;21.30;99.90
14236;DHT22;7202;50.718;7.072;2023-09-19T15:10:15;21.30;99.90
14236;DHT22;7202;50.718;7.072;2023-09-19T15:12:47;21.20;99.90
14236;DHT22;7202;50.718;7.072;2023-09-19T15:15:16;21.20;99.90
14236;DHT22;7202;50.718;7.072;2023-09-19T15:17:44;21.20;99.90
14236;DHT22;7202;50.718;7.072;2023-09-19T15:20:14;21.20;99.90
14236;DHT22;7202;50.718;7.072;2023-09-19T15:22:45;21.30;99.90
14236;DHT22;7202;50.718;7.072;2023-09-19T15:25:15;21.20;99.90
14236;DHT22;7202;50.718;7.072;2023-09-19T15:27:44;21.30;99.90
14236;DHT22;7202;50.718;7.072;2023-09-19T15:30:14;21.30;99.90
14236;DHT22;7202;50.718;7.072;2023-09-19T15:32:43;21.30;99.90
14236;DHT22;7202;50.718;7.072;2023-09-19T15:35:12;21.30;99.90
14236;DHT22;7202;50.718;7.072;2023-09-19T15:37:44;21.30;99.90
14236;DHT22;7202;50.718;7.072;2023-09-19T15:40:14;21.30;99.90
14236;DHT22;7202;50.718;7.072;2023-09-19T15:42:42;21.20;99.90
14236;DHT22;7202;50.718;7.072;2023-09-19T15:45:11;21.10;99.90
14236;DHT22;7202;50.718;7.072;2023-09-19T15:47:44;21.10;99.90
14236;DHT22;7202;50.718;7.072;2023-09-19T15:50:13;21.20;99.90
14236;DHT22;7202;50.718;7.072;2023-09-19T15:52:42;21.20;99.90
14236;DHT22;7202;50.718;7.072;2023-09-19T15:55:11;21.10;99.90
14236;DHT22;7202;50.718;7.072;2023-09-19T15:57:39;21.10;99.90
14236;DHT22;7202;50.718;7.072;2023-09-19T16:00:09;21.00;99.90
14236;DHT22;7202;50.718;7.072;2023-09-19T16:02:41;21.00;99.90
14236;DHT22;7202;50.718;7.072;2023-09-19T16:05:11;21.00;99.90
14236;DHT22;7202;50.718;7.072;2023-09-19T16:07:40;20.90;99.90
14236;DHT22;7202;50.718;7.072;2023-09-19T16:10:09;20.90;99.90
14236;DHT22;7202;50.718;7.072;2023-09-19T16:12:38;20.80;99.90
14236;DHT22;7202;50.718;7.072;2023-09-19T16:15:07;20.70;99.90
14236;DHT22;7202;50.718;7.072;2023-09-19T16:17:38;20.70;99.90